sensor_id;sensor_type;location;lat;lon;timestamp;P1;durP1;ratioP1;P2;durP2;ratioP2
77148;SDS011;66122;47.130;16.844;2023-03-02T00:09:11;33.00;;;14.63;;
77148;SDS011;66122;47.130;16.844;2023-03-02T00:19:13;39.90;;;15.60;;
77148;SDS011;66122;47.130;16.844;2023-03-02T00:29:16;36.17;;;16.88;;
77148;SDS011;66122;47.130;16.844;2023-03-02T00:39:19;31.30;;;15.17;;
77148;SDS011;66122;47.130;16.844;2023-03-02T00:49:21;27.73;;;13.37;;
77148;SDS011;66122;47.130;16.844;2023-03-02T00:59:24;27.27;;;13.53;;
77148;SDS011;66122;47.130;16.844;2023-03-02T01:09:38;29.88;;;13.82;;
77148;SDS011;66122;47.130;16.844;2023-03-02T01:19:43;27.50;;;13.67;;
77148;SDS011;66122;47.130;16.844;2023-03-02T01:29:46;30.53;;;13.27;;
77148;SDS011;66122;47.130;16.844;2023-03-02T01:39:49;32.22;;;14.35;;
77148;SDS011;66122;47.130;16.844;2023-03-02T01:50:16;30.43;;;13.80;;
77148;SDS011;66122;47.130;16.844;2023-03-02T02:00:27;26.27;;;13.37;;
77148;SDS011;66122;47.130;16.844;2023-03-02T02:10:33;45.85;;;18.25;;
77148;SDS011;66122;47.130;16.844;2023-03-02T02:20:39;48.83;;;19.07;;
77148;SDS011;66122;47.130;16.844;2023-03-02T02:30:46;34.40;;;15.70;;
77148;SDS011;66122;47.130;16.844;2023-03-02T02:40:54;29.70;;;15.23;;
77148;SDS011;66122;47.130;16.844;2023-03-02T02:51:05;37.00;;;16.33;;
77148;SDS011;66122;47.130;16.844;2023-03-02T03:01:14;35.43;;;15.77;;
77148;SDS011;66122;47.130;16.844;2023-03-02T03:11:20;27.70;;;14.67;;
77148;SDS011;66122;47.130;16.844;2023-03-02T03:21:26;35.55;;;15.35;;
77148;SDS011;66122;47.130;16.844;2023-03-02T03:31:29;31.60;;;13.87;;
77148;SDS011;66122;47.130;16.844;2023-03-02T03:41:32;36.37;;;16.37;;
77148;SDS011;66122;47.130;16.844;2023-03-02T03:51:36;27.55;;;14.40;;
77148;SDS011;66122;47.130;16.844;2023-03-02T04:11:46;31.30;;;14.47;;
77148;SDS011;66122;47.130;16.844;2023-03-02T04:21:51;33.07;;;15.00;;
77148;SDS011;66122;47.130;16.844;2023-03-02T04:31:57;31.60;;;14.85;;
77148;SDS011;66122;47.130;16.844;2023-03-02T04:42:01;32.83;;;15.27;;
77148;SDS011;66122;47.130;16.844;2023-03-02T04:52:04;35.73;;;16.00;;
77148;SDS011;66122;47.130;16.844;2023-03-02T05:02:07;35.58;;;17.15;;
77148;SDS011;66122;47.130;16.844;2023-03-02T05:12:10;40.20;;;16.97;;
77148;SDS011;66122;47.130;16.844;2023-03-02T05:22:12;39.70;;;18.77;;
77148;SDS011;66122;47.130;16.844;2023-03-02T05:32:15;40.97;;;19.30;;
77148;SDS011;66122;47.130;16.844;2023-03-02T05:42:17;42.33;;;18.23;;
77148;SDS011;66122;47.130;16.844;2023-03-02T05:52:20;42.03;;;18.70;;
77148;SDS011;66122;47.130;16.844;2023-03-02T06:02:22;49.50;;;20.50;;
77148;SDS011;66122;47.130;16.844;2023-03-02T06:12:25;40.28;;;17.67;;
77148;SDS011;66122;47.130;16.844;2023-03-02T06:22:28;43.37;;;20.93;;
77148;SDS011;66122;47.130;16.844;2023-03-02T06:32:30;48.80;;;19.47;;
77148;SDS011;66122;47.130;16.844;2023-03-02T06:42:35;55.65;;;24.65;;
77148;SDS011;66122;47.130;16.844;2023-03-02T06:52:39;43.30;;;18.97;;
77148;SDS011;66122;47.130;16.844;2023-03-02T07:02:42;48.67;;;20.60;;
77148;SDS011;66122;47.130;16.844;2023-03-02T07:12:46;48.78;;;23.40;;
77148;SDS011;66122;47.130;16.844;2023-03-02T07:22:48;61.17;;;25.60;;
77148;SDS011;66122;47.130;16.844;2023-03-02T07:32:51;47.23;;;21.17;;
77148;SDS011;66122;47.130;16.844;2023-03-02T07:42:54;51.57;;;23.73;;
77148;SDS011;66122;47.130;16.844;2023-03-02T07:52:59;44.45;;;21.83;;
77148;SDS011;66122;47.130;16.844;2023-03-02T08:03:02;47.20;;;23.00;;
77148;SDS011;66122;47.130;16.844;2023-03-02T08:13:05;45.40;;;19.73;;
77148;SDS011;66122;47.130;16.844;2023-03-02T08:23:11;47.25;;;22.52;;
77148;SDS011;66122;47.130;16.844;2023-03-02T08:33:15;44.70;;;21.83;;
77148;SDS011;66122;47.130;16.844;2023-03-02T08:43:27;39.17;;;17.87;;
77148;SDS011;66122;47.130;16.844;2023-03-02T08:53:30;46.33;;;22.15;;
77148;SDS011;66122;47.130;16.844;2023-03-02T09:03:35;46.47;;;21.20;;
77148;SDS011;66122;47.130;16.844;2023-03-02T09:13:38;43.10;;;19.63;;
77148;SDS011;66122;47.130;16.844;2023-03-02T09:23:41;34.70;;;17.60;;
77148;SDS011;66122;47.130;16.844;2023-03-02T09:33:48;36.80;;;17.90;;
77148;SDS011;66122;47.130;16.844;2023-03-02T09:44:17;41.40;;;18.57;;
77148;SDS011;66122;47.130;16.844;2023-03-02T09:54:33;34.10;;;15.53;;
77148;SDS011;66122;47.130;16.844;2023-03-02T10:04:40;28.38;;;13.13;;
77148;SDS011;66122;47.130;16.844;2023-03-02T10:15:50;28.03;;;12.87;;
77148;SDS011;66122;47.130;16.844;2023-03-02T10:35:50;29.15;;;14.32;;
77148;SDS011;66122;47.130;16.844;2023-03-02T10:46:02;26.80;;;11.10;;
77148;SDS011;66122;47.130;16.844;2023-03-02T10:56:13;21.87;;;9.40;;
77148;SDS011;66122;47.130;16.844;2023-03-02T11:06:21;17.70;;;9.50;;
77148;SDS011;66122;47.130;16.844;2023-03-02T11:16:26;16.90;;;8.18;;
77148;SDS011;66122;47.130;16.844;2023-03-02T11:36:47;28.63;;;12.07;;
77148;SDS011;66122;47.130;16.844;2023-03-02T11:46:59;27.85;;;12.98;;
77148;SDS011;66122;47.130;16.844;2023-03-02T11:57:03;22.80;;;11.37;;
77148;SDS011;66122;47.130;16.844;2023-03-02T12:07:22;18.80;;;10.17;;
77148;SDS011;66122;47.130;16.844;2023-03-02T12:17:30;23.23;;;11.32;;
77148;SDS011;66122;47.130;16.844;2023-03-02T12:27:37;22.50;;;10.80;;
77148;SDS011;66122;47.130;16.844;2023-03-02T12:37:46;17.90;;;8.93;;
77148;SDS011;66122;47.130;16.844;2023-03-02T12:47:50;17.53;;;8.73;;
77148;SDS011;66122;47.130;16.844;2023-03-02T12:58:03;16.50;;;8.43;;
77148;SDS011;66122;47.130;16.844;2023-03-02T13:08:24;17.60;;;8.70;;
77148;SDS011;66122;47.130;16.844;2023-03-02T13:18:30;16.67;;;8.10;;
77148;SDS011;66122;47.130;16.844;2023-03-02T13:28:38;19.52;;;11.20;;
77148;SDS011;66122;47.130;16.844;2023-03-02T13:38:44;17.57;;;8.27;;
77148;SDS011;66122;47.130;16.844;2023-03-02T13:49:00;17.83;;;9.90;;
77148;SDS011;66122;47.130;16.844;2023-03-02T13:59:13;19.10;;;9.80;;
77148;SDS011;66122;47.130;16.844;2023-03-02T14:09:17;26.97;;;13.60;;
77148;SDS011;66122;47.130;16.844;2023-03-02T14:19:20;22.27;;;11.20;;
77148;SDS011;66122;47.130;16.844;2023-03-02T14:39:34;24.02;;;11.07;;
77148;SDS011;66122;47.130;16.844;2023-03-02T14:49:39;24.30;;;11.50;;
77148;SDS011;66122;47.130;16.844;2023-03-02T14:59:41;48.07;;;17.87;;
77148;SDS011;66122;47.130;16.844;2023-03-02T15:09:44;36.33;;;15.57;;
77148;SDS011;66122;47.130;16.844;2023-03-02T15:19:47;40.07;;;16.90;;
77148;SDS011;66122;47.130;16.844;2023-03-02T15:29:50;20.63;;;10.83;;
77148;SDS011;66122;47.130;16.844;2023-03-02T15:39:53;23.80;;;10.77;;
77148;SDS011;66122;47.130;16.844;2023-03-02T15:49:56;25.33;;;13.10;;
77148;SDS011;66122;47.130;16.844;2023-03-02T15:59:59;32.97;;;19.13;;
77148;SDS011;66122;47.130;16.844;2023-03-02T16:10:02;23.40;;;10.43;;
77148;SDS011;66122;47.130;16.844;2023-03-02T16:20:06;30.55;;;12.60;;
77148;SDS011;66122;47.130;16.844;2023-03-02T16:30:10;29.83;;;13.50;;
77148;SDS011;66122;47.130;16.844;2023-03-02T16:40:15;32.37;;;17.33;;
77148;SDS011;66122;47.130;16.844;2023-03-02T16:50:19;30.48;;;13.98;;
77148;SDS011;66122;47.130;16.844;2023-03-02T17:00:22;31.67;;;13.70;;
77148;SDS011;66122;47.130;16.844;2023-03-02T17:10:26;30.17;;;13.17;;
77148;SDS011;66122;47.130;16.844;2023-03-02T17:20:29;34.88;;;15.50;;
77148;SDS011;66122;47.130;16.844;2023-03-02T17:30:31;37.97;;;17.10;;
77148;SDS011;66122;47.130;16.844;2023-03-02T17:40:34;39.20;;;18.83;;
77148;SDS011;66122;47.130;16.844;2023-03-02T17:50:37;38.80;;;18.40;;
77148;SDS011;66122;47.130;16.844;2023-03-02T18:00:39;42.05;;;19.60;;
77148;SDS011;66122;47.130;16.844;2023-03-02T18:10:43;45.13;;;21.47;;
77148;SDS011;66122;47.130;16.844;2023-03-02T18:20:46;32.97;;;16.47;;
77148;SDS011;66122;47.130;16.844;2023-03-02T18:30:48;38.30;;;16.75;;
77148;SDS011;66122;47.130;16.844;2023-03-02T18:40:52;28.97;;;13.40;;
77148;SDS011;66122;47.130;16.844;2023-03-02T18:50:55;27.30;;;12.87;;
77148;SDS011;66122;47.130;16.844;2023-03-02T19:00:59;27.40;;;13.98;;
77148;SDS011;66122;47.130;16.844;2023-03-02T19:11:03;34.87;;;15.30;;
77148;SDS011;66122;47.130;16.844;2023-03-02T19:21:06;28.53;;;13.53;;
77148;SDS011;66122;47.130;16.844;2023-03-02T19:31:09;27.20;;;14.20;;
77148;SDS011;66122;47.130;16.844;2023-03-02T19:41:13;39.90;;;17.60;;
77148;SDS011;66122;47.130;16.844;2023-03-02T19:51:18;34.83;;;16.70;;
77148;SDS011;66122;47.130;16.844;2023-03-02T20:01:21;39.63;;;19.70;;
77148;SDS011;66122;47.130;16.844;2023-03-02T20:11:27;37.30;;;17.15;;
77148;SDS011;66122;47.130;16.844;2023-03-02T20:21:32;36.63;;;16.33;;
77148;SDS011;66122;47.130;16.844;2023-03-02T20:31:36;33.73;;;17.17;;
77148;SDS011;66122;47.130;16.844;2023-03-02T20:41:40;40.83;;;17.35;;
77148;SDS011;66122;47.130;16.844;2023-03-02T20:51:44;43.07;;;19.43;;
77148;SDS011;66122;47.130;16.844;2023-03-02T21:01:52;42.33;;;17.10;;
77148;SDS011;66122;47.130;16.844;2023-03-02T21:11:55;36.13;;;16.60;;
77148;SDS011;66122;47.130;16.844;2023-03-02T21:22:00;42.17;;;19.13;;
77148;SDS011;66122;47.130;16.844;2023-03-02T21:32:03;33.97;;;17.03;;
77148;SDS011;66122;47.130;16.844;2023-03-02T21:42:10;32.17;;;15.67;;
77148;SDS011;66122;47.130;16.844;2023-03-02T21:52:13;34.33;;;15.70;;
77148;SDS011;66122;47.130;16.844;2023-03-02T22:02:15;28.90;;;14.47;;
77148;SDS011;66122;47.130;16.844;2023-03-02T22:12:18;40.00;;;18.60;;
77148;SDS011;66122;47.130;16.844;2023-03-02T22:22:26;39.35;;;18.27;;
77148;SDS011;66122;47.130;16.844;2023-03-02T22:32:35;28.53;;;13.90;;
77148;SDS011;66122;47.130;16.844;2023-03-02T22:42:39;32.60;;;14.70;;
77148;SDS011;66122;47.130;16.844;2023-03-02T22:52:42;30.20;;;14.40;;
77148;SDS011;66122;47.130;16.844;2023-03-02T23:02:46;27.95;;;14.40;;
77148;SDS011;66122;47.130;16.844;2023-03-02T23:12:49;27.63;;;14.80;;
77148;SDS011;66122;47.130;16.844;2023-03-02T23:22:51;28.67;;;12.67;;
77148;SDS011;66122;47.130;16.844;2023-03-02T23:32:56;24.75;;;13.13;;
77148;SDS011;66122;47.130;16.844;2023-03-02T23:42:58;26.43;;;12.50;;
77148;SDS011;66122;47.130;16.844;2023-03-02T23:53:01;28.53;;;12.77;;
